Time;durP1;ratioP1;P1;durP2;ratioP2;P2;SDS_P1;SDS_P2;PMS_P1;PMS_P2;Temp;Humidity;BMP_temperature;BMP_pressure;BME280_temperature;BME280_humidity;BME280_pressure;Samples;Min_cycle;Max_cycle;Signal;HPM_P1;HPM_P2
2021/06/28 00:00:12;;;;;;;1.92;0.98;;;21.80;92.00;21.50;99260.00;;;;337158;28;91995;-93
2021/06/28 00:00:29;;;;;;;3.83;1.10;;;21.80;92.00;21.70;99268.00;;;;338576;28;97058;-92
2021/06/28 00:00:41;;;;;;;3.25;1.08;;;21.80;92.00;21.80;99274.00;;;;338563;28;91251;-92
2021/06/28 00:00:53;;;;;;;1.90;1.00;;;21.80;92.10;21.80;99266.00;;;;338526;28;96742;-93
2021/06/28 00:01:07;;;;;;;3.53;1.00;;;21.80;92.10;21.70;99267.00;;;;338576;28;91944;-93
2021/06/28 00:01:19;;;;;;;4.10;1.10;;;21.80;92.20;21.40;99270.00;;;;338572;28;97355;-93
2021/06/28 00:01:31;;;;;;;3.20;1.08;;;21.80;92.10;21.40;99262.00;;;;341007;28;92050;-92
2021/06/28 00:01:43;;;;;;;2.53;1.10;;;21.70;92.20;21.40;99270.00;;;;341139;28;96652;-92
2021/06/28 00:01:55;;;;;;;2.88;1.17;;;21.70;92.20;21.40;99272.00;;;;337139;28;91492;-93
2021/06/28 00:02:10;;;;;;;2.75;1.10;;;21.60;92.30;21.40;99264.00;;;;337286;28;95798;-93
2021/06/28 00:02:22;;;;;;;2.50;1.20;;;21.60;92.30;21.40;99270.00;;;;339490;28;91159;-92
2021/06/28 00:02:42;;;;;;;2.25;1.33;;;21.60;92.30;21.40;99272.00;;;;341332;28;96647;-92
2021/06/28 00:03:11;;;;;;;1.35;0.80;;;21.60;92.40;21.60;99272.00;;;;338595;28;92032;-92
2021/06/28 00:03:34;;;;;;;1.88;0.77;;;21.60;92.50;21.60;99274.00;;;;339794;28;93621;-92
2021/06/28 00:03:46;;;;;;;2.97;1.30;;;21.60;92.40;21.60;99276.00;;;;338413;28;92245;-92
2021/06/28 00:03:58;;;;;;;3.00;1.45;;;21.60;92.40;21.60;99273.00;;;;341189;28;96497;-92
2021/06/28 00:04:10;;;;;;;3.08;1.35;;;21.60;92.40;21.50;99277.00;;;;337129;28;91341;-92
2021/06/28 00:04:21;;;;;;;3.30;1.20;;;21.60;92.50;21.40;99276.00;;;;339902;28;97056;-92
2021/06/28 00:04:33;;;;;;;3.25;1.10;;;21.60;92.70;21.50;99267.00;;;;338420;28;91265;-93
2021/06/28 00:04:45;;;;;;;2.50;0.93;;;21.60;92.50;21.60;99279.00;;;;338578;28;94868;-92
2021/06/28 00:04:57;;;;;;;2.47;0.95;;;21.60;92.40;21.50;99273.00;;;;336951;28;91987;-92
2021/06/28 00:05:12;;;;;;;2.03;1.08;;;21.60;92.40;21.50;99268.00;;;;341007;28;96340;-92
2021/06/28 00:05:25;;;;;;;2.30;1.00;;;21.60;92.50;21.50;99275.00;;;;340978;28;92035;-92
2021/06/28 00:05:37;;;;;;;1.83;0.80;;;21.60;92.50;21.50;99273.00;;;;341298;28;96301;-93
2021/06/28 00:05:50;;;;;;;1.50;0.90;;;21.60;92.50;21.40;99278.00;;;;340580;28;92144;-92
2021/06/28 00:06:02;;;;;;;2.17;1.10;;;21.60;92.50;21.30;99275.00;;;;341094;28;97181;-93
2021/06/28 00:06:14;;;;;;;2.95;1.27;;;21.60;92.50;21.50;99275.00;;;;341026;28;91925;-92
2021/06/28 00:06:26;;;;;;;2.97;1.35;;;21.60;92.40;21.50;99277.00;;;;342609;28;97242;-93
2021/06/28 00:06:38;;;;;;;2.90;1.40;;;21.60;92.50;21.50;99279.00;;;;341169;28;91597;-92
2021/06/28 00:06:50;;;;;;;2.17;1.13;;;21.60;92.50;21.30;99277.00;;;;342348;28;96785;-93
2021/06/28 00:07:03;;;;;;;2.38;1.05;;;21.60;92.60;21.10;99283.00;;;;341034;28;91150;-92
2021/06/28 00:07:15;;;;;;;2.95;1.13;;;21.50;92.60;21.30;99279.00;;;;339904;28;96803;-92
2021/06/28 00:07:26;;;;;;;2.58;1.20;;;21.60;92.60;21.20;99277.00;;;;338389;28;92054;-92
2021/06/28 00:07:38;;;;;;;2.30;1.33;;;21.50;92.70;21.30;99274.00;;;;337292;28;95845;-92
2021/06/28 00:07:50;;;;;;;2.10;1.25;;;21.50;92.60;21.40;99278.00;;;;338284;28;91959;-92
2021/06/28 00:08:03;;;;;;;2.75;1.25;;;21.50;92.70;21.30;99277.00;;;;341206;28;96018;-92
2021/06/28 00:08:15;;;;;;;3.67;1.25;;;21.60;92.70;21.40;99273.00;;;;339591;28;92001;-93
2021/06/28 00:08:27;;;;;;;3.50;1.13;;;21.50;92.70;21.30;99270.00;;;;341067;28;96664;-92
2021/06/28 00:08:40;;;;;;;3.42;1.00;;;21.50;92.70;21.40;99273.00;;;;338254;28;91284;-92
2021/06/28 00:08:52;;;;;;;2.60;0.90;;;21.50;92.60;21.40;99276.00;;;;337249;28;96336;-93
2021/06/28 00:09:04;;;;;;;3.10;0.88;;;21.50;92.70;21.40;99275.00;;;;337155;28;92010;-93
2021/06/28 00:09:16;;;;;;;2.50;0.77;;;21.50;92.60;21.40;99277.00;;;;342875;28;96813;-91
2021/06/28 00:09:28;;;;;;;3.60;1.05;;;21.50;92.60;21.40;99279.00;;;;341025;28;92132;-92
2021/06/28 00:09:40;;;;;;;2.80;1.10;;;21.50;92.70;21.40;99272.00;;;;341318;28;95886;-93
2021/06/28 00:09:52;;;;;;;2.90;1.10;;;21.50;92.60;21.40;99275.00;;;;343999;28;91094;-92
2021/06/28 00:10:07;;;;;;;2.35;1.00;;;21.50;92.70;21.30;99277.00;;;;342609;28;95490;-91
2021/06/28 00:10:29;;;;;;;3.60;1.30;;;21.50;92.70;21.40;99269.00;;;;341550;28;92026;-92
2021/06/28 00:10:41;;;;;;;2.63;1.08;;;21.50;92.70;21.40;99275.00;;;;342590;28;96388;-92
2021/06/28 00:10:53;;;;;;;2.33;1.05;;;21.50;92.70;21.40;99269.00;;;;342847;28;91224;-93
2021/06/28 00:11:06;;;;;;;2.15;0.98;;;21.50;92.60;21.40;99278.00;;;;343041;28;95808;-93
2021/06/28 00:11:19;;;;;;;2.20;1.13;;;21.60;92.70;21.40;99264.00;;;;341682;28;91222;-93
2021/06/28 00:11:31;;;;;;;2.50;1.20;;;21.50;92.70;21.40;99272.00;;;;341498;28;95796;-92
2021/06/28 00:11:42;;;;;;;2.75;1.35;;;21.50;92.70;21.40;99268.00;;;;341660;28;92025;-92
2021/06/28 00:11:54;;;;;;;3.60;1.15;;;21.50;92.70;21.50;99276.00;;;;340377;28;96891;-93
2021/06/28 00:12:07;;;;;;;2.83;0.98;;;21.50;92.70;21.50;99273.00;;;;341444;28;92959;-93
2021/06/28 00:12:19;;;;;;;3.05;1.10;;;21.50;92.70;21.40;99277.00;;;;338365;28;96736;-93
2021/06/28 00:12:30;;;;;;;2.97;1.10;;;21.60;92.70;21.40;99276.00;;;;340380;28;92000;-93
2021/06/28 00:12:43;;;;;;;3.10;1.00;;;21.60;92.80;21.40;99279.00;;;;339050;28;95324;-92
2021/06/28 00:12:57;;;;;;;3.10;1.10;;;21.50;92.70;21.40;99269.00;;;;339147;28;90648;-93
2021/06/28 00:13:09;;;;;;;2.90;0.98;;;21.50;92.70;21.30;99273.00;;;;337698;28;96272;-92
2021/06/28 00:13:21;;;;;;;2.83;1.10;;;21.50;92.80;21.40;99277.00;;;;340363;28;91068;-93
2021/06/28 00:13:37;;;;;;;2.60;1.20;;;21.50;92.70;21.40;99279.00;;;;340122;28;95458;-93
2021/06/28 00:13:52;;;;;;;2.13;1.20;;;21.50;92.70;21.30;99279.00;;;;340204;28;92088;-92
2021/06/28 00:14:04;;;;;;;2.20;1.20;;;21.50;92.90;21.30;99283.00;;;;341496;28;97151;-92
2021/06/28 00:14:16;;;;;;;2.15;0.90;;;21.50;92.80;21.50;99282.00;;;;341226;28;92495;-93
2021/06/28 00:14:27;;;;;;;2.70;1.10;;;21.50;92.80;21.50;99270.00;;;;343100;28;95985;-94
2021/06/28 00:14:39;;;;;;;2.22;1.05;;;21.60;92.80;21.50;99279.00;;;;338966;28;91108;-92
2021/06/28 00:14:51;;;;;;;1.65;1.05;;;21.60;92.80;21.50;99276.00;;;;341490;28;95590;-93
2021/06/28 00:15:08;;;;;;;2.63;1.02;;;21.60;92.70;21.60;99282.00;;;;341646;28;90358;-92
2021/06/28 00:15:23;;;;;;;3.03;1.10;;;21.60;92.70;21.40;99279.00;;;;339579;28;93062;-93
2021/06/28 00:15:37;;;;;;;2.20;1.30;;;21.60;92.80;21.50;99279.00;;;;340179;28;92321;-93
2021/06/28 00:15:51;;;;;;;1.73;1.20;;;21.60;92.70;21.60;99279.00;;;;339033;28;97007;-93
2021/06/28 00:16:03;;;;;;;1.63;0.93;;;21.60;92.70;21.50;99280.00;;;;340130;28;92234;-93
2021/06/28 00:16:15;;;;;;;1.35;0.73;;;21.60;92.70;21.50;99282.00;;;;340414;28;95662;-92
2021/06/28 00:16:27;;;;;;;1.35;0.93;;;21.60;92.70;21.60;99284.00;;;;339880;28;92035;-92
2021/06/28 00:16:39;;;;;;;1.88;1.25;;;21.60;92.70;21.60;99279.00;;;;341592;28;95625;-93
2021/06/28 00:16:51;;;;;;;2.08;1.17;;;21.60;92.70;21.60;99276.00;;;;339972;28;91896;-92
2021/06/28 00:17:03;;;;;;;2.03;0.98;;;21.60;92.70;21.60;99278.00;;;;338671;28;96030;-92
2021/06/28 00:17:15;;;;;;;1.67;0.80;;;21.60;92.70;21.50;99272.00;;;;338301;28;91482;-93
2021/06/28 00:17:27;;;;;;;1.98;1.10;;;21.60;92.70;21.40;99270.00;;;;339997;28;95876;-92
2021/06/28 00:17:40;;;;;;;2.65;1.35;;;21.60;92.70;21.50;99271.00;;;;344189;28;91980;-92
2021/06/28 00:17:53;;;;;;;2.78;1.30;;;21.60;92.70;21.50;99274.00;;;;341577;28;95407;-93
2021/06/28 00:18:10;;;;;;;2.47;1.10;;;21.60;92.70;21.50;99271.00;;;;341232;28;92112;-93
2021/06/28 00:18:22;;;;;;;2.72;1.15;;;21.60;92.70;21.50;99278.00;;;;342449;28;93850;-92
2021/06/28 00:18:34;;;;;;;2.65;1.08;;;21.60;92.70;21.60;99272.00;;;;342785;28;91986;-92
2021/06/28 00:18:46;;;;;;;3.58;1.02;;;21.60;92.70;21.60;99277.00;;;;341318;28;96985;-92
2021/06/28 00:19:00;;;;;;;2.85;0.98;;;21.60;92.70;21.60;99270.00;;;;338610;28;92033;-93
2021/06/28 00:19:12;;;;;;;2.47;1.15;;;21.60;92.70;21.70;99271.00;;;;338576;28;96769;-92
2021/06/28 00:19:24;;;;;;;2.50;1.20;;;21.60;92.70;21.70;99267.00;;;;341366;28;91432;-93
2021/06/28 00:19:36;;;;;;;3.22;1.15;;;21.60;92.70;21.60;99277.00;;;;341642;28;95798;-92
2021/06/28 00:19:47;;;;;;;2.40;1.02;;;21.60;92.70;21.50;99272.00;;;;342854;28;91090;-92
2021/06/28 00:19:59;;;;;;;2.00;0.98;;;21.60;92.70;21.40;99264.00;;;;341577;28;96673;-94
2021/06/28 00:20:12;;;;;;;1.40;1.00;;;21.60;92.70;21.30;99268.00;;;;340785;28;92130;-93
2021/06/28 00:20:24;;;;;;;1.50;0.93;;;21.60;92.70;21.40;99265.00;;;;339381;28;96186;-94
2021/06/28 00:20:36;;;;;;;1.55;1.00;;;21.50;92.70;21.50;99271.00;;;;339945;28;91969;-93
2021/06/28 00:20:48;;;;;;;1.67;1.10;;;21.50;92.80;21.50;99262.00;;;;340843;28;96543;-93
2021/06/28 00:21:01;;;;;;;1.52;0.90;;;21.50;92.80;21.50;99258.00;;;;342729;28;91993;-94
2021/06/28 00:21:12;;;;;;;2.33;1.10;;;21.50;92.80;21.40;99264.00;;;;342749;28;95395;-93
2021/06/28 00:21:24;;;;;;;2.47;1.30;;;21.50;92.80;21.50;99268.00;;;;338579;28;91523;-92
2021/06/28 00:21:39;;;;;;;2.63;1.38;;;21.50;92.80;21.50;99267.00;;;;339865;28;96505;-93
2021/06/28 00:21:50;;;;;;;2.80;1.23;;;21.50;92.90;21.60;99269.00;;;;340182;28;91866;-93
2021/06/28 00:22:03;;;;;;;3.40;1.00;;;21.50;92.80;21.60;99267.00;;;;341504;28;96679;-92
2021/06/28 00:22:15;;;;;;;3.10;0.80;;;21.50;92.90;21.60;99271.00;;;;337141;28;92119;-92
2021/06/28 00:22:26;;;;;;;2.47;0.82;;;21.50;92.90;21.60;99267.00;;;;338912;28;95666;-92
2021/06/28 00:22:39;;;;;;;1.33;0.73;;;21.50;92.90;21.60;99270.00;;;;341250;28;92062;-92
2021/06/28 00:22:50;;;;;;;1.65;0.95;;;21.50;92.90;21.40;99263.00;;;;340099;28;96787;-93
2021/06/28 00:23:03;;;;;;;2.05;1.25;;;21.50;92.80;21.30;99268.00;;;;341463;28;92321;-92
2021/06/28 00:23:15;;;;;;;2.17;1.15;;;21.50;92.80;21.50;99267.00;;;;339635;28;96562;-92
2021/06/28 00:23:27;;;;;;;2.10;0.95;;;21.50;92.80;21.60;99267.00;;;;340088;28;91477;-92
2021/06/28 00:23:39;;;;;;;2.90;1.10;;;21.50;92.80;21.50;99264.00;;;;344265;28;94679;-92
2021/06/28 00:23:51;;;;;;;2.58;1.15;;;21.50;92.80;21.50;99266.00;;;;342632;28;92081;-93
2021/06/28 00:24:04;;;;;;;2.42;1.10;;;21.60;92.80;21.60;99269.00;;;;342845;28;96763;-93
2021/06/28 00:24:16;;;;;;;2.60;1.00;;;21.60;92.80;21.60;99274.00;;;;339358;28;92336;-92
2021/06/28 00:24:28;;;;;;;2.63;1.15;;;21.60;92.80;21.60;99272.00;;;;341547;28;96330;-93
2021/06/28 00:24:40;;;;;;;2.00;1.00;;;21.60;92.80;21.60;99266.00;;;;340054;28;91163;-93
2021/06/28 00:24:52;;;;;;;1.92;0.85;;;21.60;92.70;21.60;99264.00;;;;342711;28;96664;-92
2021/06/28 00:25:09;;;;;;;3.53;0.80;;;21.60;92.70;21.40;99267.00;;;;339993;28;91981;-93
2021/06/28 00:25:21;;;;;;;3.92;1.10;;;21.60;92.70;21.40;99270.00;;;;340032;28;96865;-93
2021/06/28 00:25:33;;;;;;;3.47;1.35;;;21.60;92.80;21.40;99265.00;;;;338613;28;90450;-93
2021/06/28 00:25:45;;;;;;;3.10;1.30;;;21.60;92.80;21.40;99270.00;;;;337444;28;96824;-93
2021/06/28 00:25:58;;;;;;;2.95;1.27;;;21.60;92.80;21.60;99267.00;;;;338607;28;92062;-92
2021/06/28 00:26:10;;;;;;;1.60;1.00;;;21.60;92.80;21.50;99268.00;;;;339791;28;97112;-92
2021/06/28 00:26:22;;;;;;;1.38;0.90;;;21.50;92.80;21.50;99273.00;;;;340789;28;92182;-93
2021/06/28 00:26:34;;;;;;;1.38;0.90;;;21.60;92.80;21.60;99266.00;;;;340024;28;96670;-93
2021/06/28 00:26:46;;;;;;;1.88;1.00;;;21.60;92.80;21.60;99265.00;;;;343241;28;92070;-93
2021/06/28 00:26:58;;;;;;;2.30;1.30;;;21.60;92.80;21.40;99261.00;;;;344182;28;95502;-92
2021/06/28 00:27:10;;;;;;;2.95;1.40;;;21.60;92.70;21.40;99263.00;;;;341391;28;92221;-92
2021/06/28 00:27:23;;;;;;;2.88;1.27;;;21.60;92.70;21.40;99263.00;;;;341117;28;96861;-93
2021/06/28 00:27:37;;;;;;;2.22;1.02;;;21.60;92.80;21.60;99265.00;;;;341352;28;91268;-92
2021/06/28 00:28:10;;;;;;;1.70;1.02;;;21.60;92.80;21.60;99263.00;;;;342702;28;95666;-92
2021/06/28 00:28:22;;;;;;;2.10;1.00;;;21.60;92.80;21.60;99264.00;;;;339886;28;92119;-93
2021/06/28 00:28:34;;;;;;;1.95;0.73;;;21.60;92.80;21.70;99259.00;;;;341494;28;95675;-93
2021/06/28 00:28:46;;;;;;;1.38;0.70;;;21.60;92.80;21.70;99265.00;;;;337333;28;92199;-93
2021/06/28 00:28:58;;;;;;;1.33;0.80;;;21.60;92.80;21.60;99266.00;;;;342766;28;95326;-92
2021/06/28 00:29:10;;;;;;;1.33;0.82;;;21.60;92.70;21.50;99260.00;;;;339979;28;92183;-92
2021/06/28 00:29:23;;;;;;;1.88;0.90;;;21.60;92.70;21.30;99264.00;;;;341102;28;96507;-93
2021/06/28 00:29:35;;;;;;;2.97;1.17;;;21.60;92.70;21.20;99267.00;;;;342319;28;92199;-92
2021/06/28 00:29:46;;;;;;;3.20;1.40;;;21.60;92.60;21.30;99267.00;;;;343398;28;96652;-92
2021/06/28 00:29:58;;;;;;;3.15;1.30;;;21.60;92.60;21.50;99270.00;;;;342386;28;90517;-91
2021/06/28 00:30:14;;;;;;;1.55;0.95;;;21.60;92.70;21.40;99261.00;;;;344253;28;93862;-92
2021/06/28 00:30:27;;;;;;;2.60;1.10;;;21.60;92.70;21.50;99266.00;;;;341274;28;92109;-93
2021/06/28 00:30:41;;;;;;;2.70;1.10;;;21.60;92.80;21.60;99275.00;;;;344134;28;97151;-93
2021/06/28 00:30:55;;;;;;;2.80;1.08;;;21.60;92.80;21.70;99265.00;;;;343796;28;92339;-93
2021/06/28 00:31:08;;;;;;;3.72;1.30;;;21.60;92.80;21.60;99272.00;;;;342826;28;96584;-92
2021/06/28 00:31:22;;;;;;;2.90;1.38;;;21.60;92.80;21.50;99266.00;;;;343951;28;91226;-92
2021/06/28 00:31:34;;;;;;;2.47;1.25;;;21.60;92.70;21.60;99263.00;;;;341459;28;96339;-92
2021/06/28 00:31:46;;;;;;;1.75;1.00;;;21.60;92.80;21.60;99264.00;;;;342698;28;92025;-93
2021/06/28 00:31:58;;;;;;;2.15;1.10;;;21.60;92.80;21.70;99270.00;;;;345358;28;95944;-93
2021/06/28 00:32:10;;;;;;;2.53;1.17;;;21.60;92.70;21.60;99264.00;;;;344079;28;91328;-92
2021/06/28 00:32:22;;;;;;;2.92;1.25;;;21.60;92.70;21.70;99262.00;;;;341732;28;94999;-92
2021/06/28 00:32:34;;;;;;;2.60;1.10;;;21.60;92.70;21.70;99261.00;;;;340713;28;92091;-92
2021/06/28 00:32:47;;;;;;;1.80;1.08;;;21.70;92.70;21.70;99266.00;;;;343293;28;95687;-92
2021/06/28 00:32:59;;;;;;;1.88;1.05;;;21.70;92.70;21.60;99269.00;;;;343958;28;91253;-93
2021/06/28 00:33:14;;;;;;;4.22;1.15;;;21.70;92.60;21.70;99267.00;;;;342877;28;94067;-92
2021/06/28 00:33:26;;;;;;;4.72;1.20;;;21.70;92.60;21.70;99263.00;;;;342588;28;91211;-92
2021/06/28 00:33:38;;;;;;;2.72;1.00;;;21.70;92.60;21.70;99260.00;;;;341593;28;96342;-92
2021/06/28 00:33:50;;;;;;;2.60;0.90;;;21.70;92.70;21.70;99265.00;;;;343927;28;92054;-93
2021/06/28 00:34:02;;;;;;;1.67;0.90;;;21.80;92.60;21.70;99260.00;;;;342859;28;97245;-93
2021/06/28 00:34:14;;;;;;;1.60;0.98;;;21.70;92.60;21.70;99260.00;;;;344026;28;91364;-92
2021/06/28 00:34:26;;;;;;;1.40;0.90;;;21.70;92.50;21.60;99259.00;;;;342681;28;95995;-93
2021/06/28 00:34:38;;;;;;;1.60;1.00;;;21.80;92.50;21.60;99264.00;;;;344065;28;92069;-93
2021/06/28 00:34:50;;;;;;;2.10;1.20;;;21.70;92.50;21.70;99269.00;;;;341469;28;95988;-92
2021/06/28 00:35:03;;;;;;;2.08;1.10;;;21.80;92.60;21.70;99266.00;;;;345432;28;92001;-92
2021/06/28 00:35:15;;;;;;;1.70;0.93;;;21.80;92.60;21.70;99259.00;;;;342357;28;96250;-92
2021/06/28 00:35:26;;;;;;;1.35;0.80;;;21.80;92.60;21.70;99259.00;;;;341040;28;92189;-92
2021/06/28 00:35:39;;;;;;;1.30;0.90;;;21.80;92.60;21.80;99257.00;;;;344286;28;95649;-93
2021/06/28 00:35:52;;;;;;;1.58;0.85;;;21.70;92.60;21.70;99269.00;;;;341407;28;91292;-92
2021/06/28 00:36:04;;;;;;;2.20;1.00;;;21.80;92.60;21.50;99258.00;;;;341403;28;95658;-93
2021/06/28 00:36:16;;;;;;;2.55;1.00;;;21.80;92.50;21.30;99260.00;;;;340383;28;90387;-93
2021/06/28 00:36:28;;;;;;;2.00;0.95;;;21.70;92.50;21.30;99259.00;;;;342949;28;95352;-93
2021/06/28 00:36:40;;;;;;;1.77;0.88;;;21.70;92.50;21.50;99255.00;;;;342664;28;91129;-92
2021/06/28 00:36:52;;;;;;;2.28;0.90;;;21.70;92.60;21.60;99255.00;;;;341371;28;95758;-92
2021/06/28 00:37:04;;;;;;;2.85;1.02;;;21.70;92.60;21.60;99265.00;;;;342815;28;91992;-93
2021/06/28 00:37:16;;;;;;;2.70;1.10;;;21.70;92.60;21.60;99263.00;;;;341550;28;96836;-92
2021/06/28 00:37:28;;;;;;;2.85;1.27;;;21.80;92.60;21.60;99260.00;;;;343995;28;91241;-92
2021/06/28 00:37:40;;;;;;;2.97;1.35;;;21.70;92.50;21.60;99265.00;;;;340139;28;96947;-93
2021/06/28 00:37:52;;;;;;;2.70;1.15;;;21.70;92.50;21.60;99256.00;;;;342645;28;92000;-93
2021/06/28 00:38:05;;;;;;;1.92;0.80;;;21.70;92.60;21.40;99257.00;;;;341347;28;95900;-92
2021/06/28 00:38:17;;;;;;;1.85;0.77;;;21.80;92.60;21.50;99257.00;;;;339652;28;91398;-92
2021/06/28 00:38:29;;;;;;;1.52;0.88;;;21.70;92.60;21.60;99260.00;;;;344113;28;95978;-92
2021/06/28 00:38:40;;;;;;;1.85;1.05;;;21.70;92.60;21.60;99271.00;;;;342756;28;92029;-92
2021/06/28 00:38:52;;;;;;;3.30;1.10;;;21.70;92.60;21.50;99264.00;;;;341555;28;94102;-93
2021/06/28 00:39:04;;;;;;;3.25;1.25;;;21.70;92.50;21.40;99262.00;;;;339922;28;92033;-92
2021/06/28 00:39:16;;;;;;;2.63;1.10;;;21.70;92.50;21.60;99257.00;;;;344124;28;95765;-92
2021/06/28 00:39:28;;;;;;;2.25;1.02;;;21.70;92.60;21.50;99259.00;;;;341242;28;92146;-93
2021/06/28 00:39:40;;;;;;;2.40;0.95;;;21.70;92.60;21.50;99265.00;;;;342878;28;96601;-92
2021/06/28 00:39:52;;;;;;;2.38;1.05;;;21.70;92.60;21.60;99264.00;;;;344020;28;91995;-93
2021/06/28 00:40:06;;;;;;;2.10;1.00;;;21.70;92.60;21.70;99260.00;;;;344076;28;95684;-92
2021/06/28 00:40:19;;;;;;;2.67;1.00;;;21.70;92.70;21.60;99263.00;;;;342707;28;91244;-93
2021/06/28 00:40:31;;;;;;;2.40;0.90;;;21.70;92.60;21.70;99254.00;;;;342986;28;94745;-93
2021/06/28 00:40:44;;;;;;;3.35;1.33;;;21.70;92.70;21.70;99255.00;;;;344104;28;91170;-93
2021/06/28 00:40:56;;;;;;;2.80;1.20;;;21.70;92.70;21.70;99262.00;;;;344323;28;92562;-92
2021/06/28 00:41:08;;;;;;;2.22;1.10;;;21.70;92.70;21.60;99255.00;;;;342714;28;91181;-93
2021/06/28 00:41:19;;;;;;;2.08;0.85;;;21.70;92.70;21.70;99262.00;;;;340991;28;96706;-93
2021/06/28 00:41:31;;;;;;;2.30;1.00;;;21.70;92.60;21.40;99257.00;;;;342615;28;92102;-93
2021/06/28 00:41:43;;;;;;;2.80;1.00;;;21.60;92.60;21.40;99256.00;;;;341165;28;95730;-92
2021/06/28 00:41:55;;;;;;;3.15;1.10;;;21.60;92.60;21.50;99250.00;;;;341286;28;91976;-92
2021/06/28 00:42:07;;;;;;;2.95;1.13;;;21.60;92.60;21.50;99251.00;;;;344171;28;95368;-92
2021/06/28 00:42:22;;;;;;;2.35;1.17;;;21.70;92.70;21.60;99253.00;;;;342585;28;91438;-92
2021/06/28 00:42:34;;;;;;;1.92;1.13;;;21.60;92.60;21.50;99251.00;;;;342861;28;96439;-92
2021/06/28 00:42:46;;;;;;;2.20;1.20;;;21.60;92.60;21.60;99258.00;;;;341479;28;91905;-93
2021/06/28 00:42:58;;;;;;;2.53;1.30;;;21.60;92.60;21.60;99257.00;;;;342913;28;96022;-93
2021/06/28 00:43:10;;;;;;;3.55;1.17;;;21.70;93.00;21.60;99255.00;;;;341336;28;91994;-92
2021/06/28 00:43:22;;;;;;;2.95;1.10;;;21.70;92.70;21.60;99258.00;;;;340083;28;96907;-92
2021/06/28 00:43:34;;;;;;;2.70;1.08;;;21.70;92.70;21.60;99252.00;;;;344015;28;92068;-93
2021/06/28 00:43:46;;;;;;;2.92;1.05;;;21.70;92.70;21.70;99257.00;;;;342992;28;94114;-93
2021/06/28 00:43:58;;;;;;;2.70;1.02;;;21.70;92.70;21.70;99252.00;;;;341357;28;91979;-92
2021/06/28 00:44:10;;;;;;;2.20;0.90;;;21.70;92.70;21.60;99257.00;;;;344117;28;95726;-92
2021/06/28 00:44:22;;;;;;;1.58;0.75;;;21.70;92.60;21.70;99254.00;;;;344997;28;90693;-92
2021/06/28 00:44:34;;;;;;;1.50;0.80;;;21.80;92.60;21.80;99264.00;;;;344290;28;95000;-93
2021/06/28 00:44:46;;;;;;;1.83;0.90;;;21.70;92.60;21.70;99258.00;;;;345367;28;91389;-93
2021/06/28 00:44:57;;;;;;;1.95;1.05;;;21.70;92.50;21.60;99254.00;;;;341588;28;95916;-93
2021/06/28 00:45:23;;;;;;;2.72;1.17;;;21.80;92.60;21.60;99268.00;;;;341354;28;91936;-92
2021/06/28 00:45:44;;;;;;;3.10;1.17;;;21.70;92.50;21.50;99264.00;;;;344126;28;97770;-93
2021/06/28 00:45:56;;;;;;;1.52;0.93;;;21.80;92.50;21.70;99262.00;;;;342710;28;91959;-93
2021/06/28 00:46:08;;;;;;;2.83;0.90;;;21.80;92.60;21.70;99261.00;;;;342730;28;96936;-92
2021/06/28 00:46:20;;;;;;;3.08;1.00;;;21.80;92.60;21.80;99259.00;;;;342696;28;91983;-92
2021/06/28 00:46:32;;;;;;;1.92;1.00;;;21.70;92.90;21.80;99256.00;;;;342828;28;96229;-92
2021/06/28 00:46:44;;;;;;;1.88;1.00;;;21.70;92.60;21.80;99260.00;;;;341318;28;90362;-93
2021/06/28 00:46:56;;;;;;;2.50;0.85;;;21.80;92.50;21.70;99268.00;;;;342675;28;93933;-93
2021/06/28 00:47:08;;;;;;;2.55;0.93;;;21.80;92.50;21.70;99262.00;;;;342820;28;91217;-93
2021/06/28 00:47:20;;;;;;;2.25;0.90;;;21.80;92.50;21.70;99261.00;;;;343546;28;95890;-93
2021/06/28 00:47:32;;;;;;;2.38;0.98;;;21.80;92.50;21.70;99264.00;;;;343224;28;92196;-92
2021/06/28 00:47:44;;;;;;;2.85;0.95;;;21.80;92.80;21.60;99262.00;;;;342710;28;96643;-92
2021/06/28 00:48:05;;;;;;;2.80;0.98;;;21.80;92.80;21.60;99266.00;;;;342848;28;91120;-92
2021/06/28 00:48:18;;;;;;;3.20;1.30;;;21.80;92.60;21.70;99265.00;;;;341574;28;95084;-93
2021/06/28 00:48:30;;;;;;;2.78;1.00;;;21.80;92.60;21.50;99263.00;;;;339941;28;92015;-92
2021/06/28 00:48:41;;;;;;;2.17;0.88;;;21.80;92.50;21.70;99260.00;;;;341537;28;95874;-92
2021/06/28 00:48:55;;;;;;;1.95;0.90;;;21.80;92.60;21.60;99256.00;;;;343940;28;91260;-93
2021/06/28 00:49:07;;;;;;;3.10;1.10;;;21.80;92.60;21.60;99265.00;;;;342882;28;95014;-92
2021/06/28 00:49:19;;;;;;;3.30;0.93;;;21.70;92.60;21.70;99253.00;;;;344117;28;91084;-93
2021/06/28 00:49:31;;;;;;;2.30;1.02;;;21.70;92.60;21.70;99263.00;;;;341402;28;95442;-92
2021/06/28 00:49:43;;;;;;;2.03;0.90;;;21.80;92.60;21.80;99257.00;;;;342770;28;91973;-92
2021/06/28 00:49:55;;;;;;;2.88;1.00;;;21.80;92.60;21.70;99263.00;;;;341677;28;94176;-94
2021/06/28 00:50:07;;;;;;;3.38;1.00;;;21.80;92.60;21.60;99262.00;;;;344043;28;92361;-92
2021/06/28 00:50:21;;;;;;;3.17;1.02;;;21.80;92.50;21.60;99257.00;;;;340509;28;96837;-93
2021/06/28 00:50:35;;;;;;;2.03;0.93;;;21.80;92.50;21.70;99251.00;;;;341082;28;92429;-92
2021/06/28 00:50:53;;;;;;;2.78;1.10;;;21.80;92.60;21.70;99254.00;;;;343914;28;96406;-93
2021/06/28 00:51:05;;;;;;;2.72;0.98;;;21.80;92.60;21.40;99253.00;;;;344110;28;90641;-92
2021/06/28 00:51:17;;;;;;;2.97;0.90;;;21.80;92.50;21.60;99251.00;;;;342687;28;94724;-92
2021/06/28 00:51:28;;;;;;;2.30;0.90;;;21.70;92.50;21.60;99252.00;;;;342659;28;91251;-93
2021/06/28 00:51:40;;;;;;;1.70;0.80;;;21.80;92.60;21.60;99253.00;;;;342804;28;96880;-91
2021/06/28 00:51:53;;;;;;;1.58;0.80;;;21.70;92.50;21.70;99255.00;;;;342694;28;91106;-92
2021/06/28 00:52:06;;;;;;;2.28;0.80;;;21.80;92.60;21.70;99249.00;;;;342779;28;95641;-92
2021/06/28 00:52:19;;;;;;;2.58;0.77;;;21.80;92.60;21.80;99250.00;;;;345430;28;92001;-93
2021/06/28 00:52:31;;;;;;;2.70;0.80;;;21.80;92.60;21.70;99248.00;;;;342814;28;96838;-94
2021/06/28 00:52:43;;;;;;;3.17;1.10;;;21.80;92.50;21.60;99251.00;;;;342598;28;92133;-92
2021/06/28 00:52:59;;;;;;;4.13;1.10;;;21.80;92.50;21.80;99254.00;;;;341597;28;93000;-93
2021/06/28 00:53:13;;;;;;;3.58;0.90;;;21.80;92.50;21.60;99258.00;;;;341212;28;91286;-93
2021/06/28 00:53:25;;;;;;;2.38;0.90;;;21.80;92.50;21.50;99243.00;;;;342426;28;95730;-93
2021/06/28 00:53:37;;;;;;;2.22;1.00;;;21.80;92.50;21.40;99252.00;;;;341245;28;92034;-91
2021/06/28 00:53:49;;;;;;;2.22;1.00;;;21.80;92.50;21.50;99255.00;;;;342784;28;96673;-93
2021/06/28 00:54:01;;;;;;;2.15;0.80;;;21.80;92.50;21.50;99255.00;;;;341315;28;92031;-92
2021/06/28 00:54:13;;;;;;;2.13;1.02;;;21.80;92.50;21.40;99249.00;;;;344281;28;94374;-93
2021/06/28 00:54:25;;;;;;;2.15;1.15;;;21.80;92.50;21.60;99247.00;;;;341111;28;91161;-93
2021/06/28 00:54:38;;;;;;;2.13;1.13;;;21.80;92.60;21.60;99250.00;;;;345554;28;96297;-92
2021/06/28 00:54:50;;;;;;;1.70;0.90;;;21.80;92.60;21.50;99251.00;;;;341241;28;92169;-93
2021/06/28 00:55:02;;;;;;;1.73;0.88;;;21.80;92.60;21.60;99246.00;;;;345583;28;96180;-92
2021/06/28 00:55:14;;;;;;;1.73;0.90;;;21.80;92.60;21.70;99253.00;;;;341354;28;90399;-92
2021/06/28 00:55:27;;;;;;;2.17;1.10;;;21.80;92.60;21.70;99252.00;;;;344152;28;95558;-93
2021/06/28 00:55:41;;;;;;;3.75;1.30;;;21.80;92.80;21.60;99253.00;;;;341257;28;91996;-92
2021/06/28 00:55:54;;;;;;;4.53;1.25;;;21.80;92.50;21.50;99247.00;;;;344214;28;96097;-93
2021/06/28 00:56:12;;;;;;;3.20;1.20;;;21.80;92.60;21.70;99252.00;;;;342653;28;92311;-93
2021/06/28 00:56:24;;;;;;;2.10;1.02;;;21.70;92.60;21.70;99256.00;;;;344128;28;95635;-92
2021/06/28 00:56:36;;;;;;;1.50;1.00;;;21.80;92.60;21.70;99250.00;;;;339985;28;92072;-92
2021/06/28 00:56:48;;;;;;;2.55;1.00;;;21.80;92.70;21.80;99253.00;;;;342622;28;95642;-93
2021/06/28 00:57:00;;;;;;;3.78;1.20;;;21.80;92.60;21.60;99254.00;;;;342837;28;92269;-93
2021/06/28 00:57:12;;;;;;;4.10;1.05;;;21.80;92.50;21.70;99255.00;;;;342850;28;97110;-93
2021/06/28 00:57:25;;;;;;;3.22;0.90;;;21.80;92.60;21.70;99252.00;;;;344189;28;90394;-93
2021/06/28 00:57:37;;;;;;;1.92;0.93;;;21.80;92.60;21.70;99249.00;;;;341478;28;95467;-93